createdAt,value
2017-09-27T00:00:34.727Z,16.43
2017-09-27T00:03:02.735Z,18.60
2017-09-27T00:05:31.342Z,18.87
2017-09-27T00:08:00.032Z,18.93
2017-09-27T00:10:27.901Z,19.20
2017-09-27T00:12:56.743Z,19.77
2017-09-27T00:15:24.638Z,21.80
2017-09-27T00:17:52.814Z,20.90
2017-09-27T00:20:20.579Z,22.40
2017-09-27T00:22:48.346Z,23.20
2017-09-27T00:25:16.318Z,23.83
2017-09-27T00:27:44.389Z,20.20
2017-09-27T00:30:12.442Z,21.80
2017-09-27T00:32:40.321Z,19.83
2017-09-27T00:35:08.384Z,16.90
2017-09-27T00:37:36.169Z,15.70
2017-09-27T00:40:04.103Z,18.43
2017-09-27T00:42:32.006Z,15.77
2017-09-27T00:44:59.968Z,16.10
2017-09-27T00:47:27.723Z,16.17
2017-09-27T00:49:55.636Z,16.40
2017-09-27T00:52:24.251Z,16.73
2017-09-27T00:54:52.134Z,15.60
2017-09-27T00:57:20.009Z,14.20
2017-09-27T00:59:47.885Z,15.20
2017-09-27T01:02:15.652Z,15.87
2017-09-27T01:04:43.502Z,16.07
2017-09-27T01:07:11.378Z,14.77
2017-09-27T01:09:39.262Z,16.10
2017-09-27T01:12:07.034Z,15.73
2017-09-27T01:14:35.678Z,16.63
2017-09-27T01:17:03.443Z,15.27
2017-09-27T01:19:32.231Z,14.80
2017-09-27T01:22:00.198Z,14.27
2017-09-27T01:24:28.083Z,14.83
2017-09-27T01:26:55.954Z,16.20
2017-09-27T01:29:24.003Z,13.63
2017-09-27T01:31:51.897Z,17.70
2017-09-27T01:34:19.661Z,15.13
2017-09-27T01:36:48.033Z,19.50
2017-09-27T01:39:15.891Z,19.30
2017-09-27T01:41:43.862Z,18.90
2017-09-27T01:44:11.833Z,16.97
2017-09-27T01:46:39.786Z,18.87
2017-09-27T01:49:07.566Z,17.60
2017-09-27T01:51:35.433Z,15.40
2017-09-27T01:54:03.278Z,16.10
2017-09-27T01:56:31.254Z,16.43
2017-09-27T01:58:59.241Z,17.57
2017-09-27T02:01:27.190Z,17.70
2017-09-27T02:03:54.987Z,18.20
2017-09-27T02:06:23.641Z,15.97
2017-09-27T02:08:51.389Z,15.07
2017-09-27T02:11:19.185Z,14.07
2017-09-27T02:13:47.090Z,14.70
2017-09-27T02:16:15.032Z,14.70
2017-09-27T02:18:42.882Z,14.80
2017-09-27T02:21:10.750Z,14.57
2017-09-27T02:23:38.723Z,13.80
2017-09-27T02:26:06.674Z,14.10
2017-09-27T02:28:34.559Z,14.97
2017-09-27T02:31:02.432Z,15.00
2017-09-27T02:33:30.176Z,14.50
2017-09-27T02:35:57.952Z,14.27
2017-09-27T02:38:25.920Z,13.80
2017-09-27T02:40:53.784Z,13.83
2017-09-27T02:43:21.560Z,11.60
2017-09-27T02:45:49.707Z,12.07
2017-09-27T02:48:17.582Z,10.87
2017-09-27T02:50:45.322Z,14.10
2017-09-27T02:53:13.122Z,13.47
2017-09-27T02:55:41.189Z,16.37
2017-09-27T02:58:09.156Z,18.67
2017-09-27T03:00:37.022Z,20.97
2017-09-27T03:03:05.201Z,23.73
2017-09-27T03:05:32.961Z,23.07
2017-09-27T03:08:00.835Z,25.70
2017-09-27T03:10:28.679Z,26.47
2017-09-27T03:12:56.507Z,28.33
2017-09-27T03:15:24.528Z,25.70
2017-09-27T03:17:52.400Z,23.50
2017-09-27T03:20:20.167Z,23.00
2017-09-27T03:22:48.046Z,24.90
2017-09-27T03:25:15.980Z,22.67
2017-09-27T03:27:43.862Z,21.43
2017-09-27T03:30:11.691Z,23.60
2017-09-27T03:32:39.589Z,20.67
2017-09-27T03:35:08.179Z,23.97
2017-09-27T03:37:35.962Z,22.90
2017-09-27T03:40:03.837Z,25.70
2017-09-27T03:42:32.344Z,18.13
2017-09-27T03:45:00.138Z,19.30
2017-09-27T03:47:28.931Z,21.20
2017-09-27T03:49:56.800Z,21.23
2017-09-27T03:52:24.571Z,24.10
2017-09-27T03:54:52.429Z,20.90
2017-09-27T03:57:20.162Z,18.07
2017-09-27T03:59:48.052Z,25.57
2017-09-27T04:02:15.921Z,24.33
2017-09-27T04:04:43.858Z,20.23
2017-09-27T04:07:11.804Z,20.13
2017-09-27T04:09:40.350Z,22.47
2017-09-27T04:12:08.308Z,22.93
2017-09-27T04:14:36.501Z,23.60
2017-09-27T04:17:04.451Z,23.07
2017-09-27T04:19:32.191Z,20.00
2017-09-27T04:22:00.003Z,21.83
2017-09-27T04:24:28.766Z,23.23
2017-09-27T04:26:56.656Z,22.70
2017-09-27T04:29:24.679Z,21.00
2017-09-27T04:31:52.797Z,19.83
2017-09-27T04:34:20.530Z,14.73
2017-09-27T04:36:48.571Z,12.10
2017-09-27T04:39:16.318Z,12.50
2017-09-27T04:41:45.353Z,12.20
2017-09-27T04:44:13.337Z,12.40
2017-09-27T04:46:41.144Z,11.73
2017-09-27T04:49:09.805Z,14.67
2017-09-27T04:51:37.662Z,13.67
2017-09-27T04:54:05.412Z,13.60
2017-09-27T04:56:33.419Z,12.73
2017-09-27T04:59:03.017Z,13.67
2017-09-27T05:01:30.991Z,13.50
2017-09-27T05:03:58.934Z,16.43
2017-09-27T05:06:26.803Z,17.57
2017-09-27T05:08:55.901Z,20.33
2017-09-27T05:11:23.779Z,24.00
2017-09-27T05:13:52.321Z,22.23
2017-09-27T05:16:20.332Z,24.87
2017-09-27T05:18:48.196Z,27.47
2017-09-27T05:21:16.276Z,24.73
2017-09-27T05:23:44.636Z,23.37
2017-09-27T05:26:12.781Z,23.20
2017-09-27T05:28:40.999Z,25.30
2017-09-27T05:31:08.785Z,26.80
2017-09-27T05:33:37.626Z,21.13
2017-09-27T05:36:05.521Z,19.20
2017-09-27T05:38:33.383Z,20.87
2017-09-27T05:41:01.438Z,20.30
2017-09-27T05:43:29.307Z,21.70
2017-09-27T05:45:57.604Z,17.67
2017-09-27T05:48:25.545Z,16.73
2017-09-27T05:50:53.341Z,16.57
2017-09-27T05:53:23.608Z,17.70
2017-09-27T05:55:51.499Z,15.90
2017-09-27T05:58:19.240Z,15.03
2017-09-27T06:00:47.262Z,14.03
2017-09-27T06:03:15.406Z,13.33
2017-09-27T06:05:43.277Z,12.90
2017-09-27T06:08:11.171Z,15.60
2017-09-27T06:10:40.028Z,13.63
2017-09-27T06:13:07.798Z,12.77
2017-09-27T06:15:35.670Z,13.97
2017-09-27T06:18:04.652Z,12.93
2017-09-27T06:20:32.438Z,13.37
2017-09-27T06:23:00.191Z,11.67
2017-09-27T06:25:28.580Z,13.30
2017-09-27T06:27:56.323Z,11.17
2017-09-27T06:30:25.247Z,10.13
2017-09-27T06:32:53.782Z,9.77
2017-09-27T06:35:22.570Z,10.17
2017-09-27T06:37:50.310Z,9.87
2017-09-27T06:40:20.035Z,11.03
2017-09-27T06:42:47.869Z,10.60
2017-09-27T06:45:16.405Z,10.63
2017-09-27T06:47:45.006Z,11.13
2017-09-27T06:50:12.887Z,10.70
2017-09-27T06:52:40.745Z,11.20
2017-09-27T06:55:08.587Z,11.70
2017-09-27T06:57:36.458Z,10.40
2017-09-27T07:00:04.231Z,9.60
2017-09-27T07:02:32.102Z,10.40
2017-09-27T07:04:59.976Z,8.93
2017-09-27T07:07:27.731Z,10.60
2017-09-27T07:09:55.497Z,8.73
2017-09-27T07:12:23.309Z,9.63
2017-09-27T07:14:51.091Z,10.93
2017-09-27T07:17:18.901Z,15.93
2017-09-27T07:19:46.665Z,15.90
2017-09-27T07:22:14.419Z,18.30
2017-09-27T07:24:42.186Z,16.90
2017-09-27T07:27:10.029Z,17.93
2017-09-27T07:29:37.935Z,17.67
2017-09-27T07:32:05.783Z,15.50
2017-09-27T07:34:33.556Z,18.20
2017-09-27T07:37:01.479Z,17.33
2017-09-27T07:39:29.288Z,16.87
2017-09-27T07:41:57.042Z,14.10
2017-09-27T07:44:24.771Z,13.20
2017-09-27T07:46:52.535Z,12.47
2017-09-27T07:49:20.286Z,10.03
2017-09-27T07:54:21.023Z,10.57
2017-09-27T07:56:49.597Z,9.47
2017-09-27T07:59:18.155Z,8.53
2017-09-27T08:01:45.944Z,9.50
2017-09-27T08:04:14.886Z,9.70
2017-09-27T08:06:42.641Z,10.40
2017-09-27T08:09:10.440Z,11.70
2017-09-27T08:11:38.170Z,12.60
2017-09-27T08:14:05.973Z,12.13
2017-09-27T08:16:33.722Z,14.40
2017-09-27T08:19:01.507Z,15.33
2017-09-27T08:21:29.327Z,13.87
2017-09-27T08:23:57.203Z,13.70
2017-09-27T08:26:25.710Z,14.20
2017-09-27T08:28:53.573Z,12.17
2017-09-27T08:31:21.421Z,12.70
2017-09-27T08:33:49.164Z,12.50
2017-09-27T08:36:16.923Z,13.70
2017-09-27T08:38:44.760Z,14.03
2017-09-27T08:41:13.319Z,13.30
2017-09-27T08:43:41.178Z,13.20
2017-09-27T08:46:09.135Z,12.93
2017-09-27T08:48:36.912Z,14.07
2017-09-27T08:51:05.992Z,12.93
2017-09-27T08:53:33.809Z,12.53
2017-09-27T08:56:02.494Z,11.23
2017-09-27T08:58:31.009Z,10.30
2017-09-27T09:00:58.910Z,14.57
2017-09-27T09:03:26.680Z,13.43
2017-09-27T09:05:54.524Z,13.50
2017-09-27T09:08:22.308Z,12.13
2017-09-27T09:10:50.178Z,11.90
2017-09-27T09:13:18.024Z,14.90
2017-09-27T09:15:45.804Z,13.83
2017-09-27T09:18:13.674Z,12.93
2017-09-27T09:20:41.535Z,11.80
2017-09-27T09:23:09.391Z,12.97
2017-09-27T09:25:37.268Z,13.20
2017-09-27T09:28:05.143Z,12.90
2017-09-27T09:30:34.437Z,11.83
2017-09-27T09:33:02.329Z,12.90
2017-09-27T09:35:31.107Z,9.90
2017-09-27T09:38:00.594Z,11.30
2017-09-27T09:40:28.467Z,10.67
2017-09-27T09:42:56.480Z,10.33
2017-09-27T09:45:24.295Z,12.67
2017-09-27T09:47:52.158Z,10.13
2017-09-27T09:50:20.023Z,10.10
2017-09-27T09:52:47.823Z,12.13
2017-09-27T09:55:16.475Z,13.27
2017-09-27T09:57:44.345Z,11.90
2017-09-27T10:00:12.081Z,12.93
2017-09-27T10:02:39.885Z,13.57
2017-09-27T10:05:08.237Z,13.17
2017-09-27T10:07:36.217Z,14.87
2017-09-27T10:10:04.872Z,13.80
2017-09-27T10:12:32.874Z,13.57
2017-09-27T10:15:00.636Z,15.33
2017-09-27T10:17:28.537Z,12.33
2017-09-27T10:19:57.173Z,14.27
2017-09-27T10:22:25.059Z,11.97
2017-09-27T10:24:52.916Z,10.13
2017-09-27T10:27:20.727Z,12.57
2017-09-27T10:29:49.888Z,10.80
2017-09-27T10:32:17.737Z,11.60
2017-09-27T10:34:45.500Z,10.03
2017-09-27T10:37:13.388Z,10.47
2017-09-27T10:39:42.050Z,10.93
2017-09-27T10:42:09.882Z,10.53
2017-09-27T10:44:37.806Z,11.43
2017-09-27T10:47:05.671Z,11.50
2017-09-27T10:49:33.535Z,11.77
2017-09-27T10:52:01.411Z,10.70
2017-09-27T10:54:29.271Z,10.27
2017-09-27T10:56:57.222Z,11.00
2017-09-27T10:59:25.932Z,11.90
2017-09-27T11:01:53.692Z,12.20
2017-09-27T11:04:21.675Z,12.00
2017-09-27T11:06:50.367Z,11.30
2017-09-27T11:09:19.215Z,11.40
2017-09-27T11:11:47.013Z,13.13
2017-09-27T11:14:15.718Z,10.67
2017-09-27T11:16:44.252Z,11.77
2017-09-27T11:19:13.772Z,12.57
2017-09-27T11:21:41.542Z,9.97
2017-09-27T11:24:09.493Z,12.57
2017-09-27T11:26:37.275Z,11.80
2017-09-27T11:29:05.136Z,11.60
2017-09-27T11:31:33.022Z,11.00
2017-09-27T11:34:01.549Z,9.40
2017-09-27T11:36:29.405Z,9.90
2017-09-27T11:38:57.300Z,10.73
2017-09-27T11:41:25.291Z,10.00
2017-09-27T11:43:53.100Z,12.17
2017-09-27T11:46:20.924Z,12.90
2017-09-27T11:48:48.786Z,14.50
2017-09-27T11:51:16.652Z,12.90
2017-09-27T11:53:44.708Z,15.40
2017-09-27T11:56:12.452Z,14.90
2017-09-27T11:58:40.364Z,14.90
2017-09-27T12:01:08.223Z,15.10
2017-09-27T12:03:35.999Z,13.80
2017-09-27T12:06:03.864Z,14.67
2017-09-27T12:08:31.713Z,17.37
2017-09-27T12:11:00.708Z,18.10
2017-09-27T12:13:28.578Z,16.30
2017-09-27T12:15:56.537Z,16.10
2017-09-27T12:18:24.546Z,17.00
2017-09-27T12:20:53.202Z,16.03
2017-09-27T12:23:21.845Z,17.37
2017-09-27T12:25:49.753Z,17.10
2017-09-27T12:28:17.708Z,17.77
2017-09-27T12:30:45.587Z,16.97
2017-09-27T12:33:13.465Z,17.90
2017-09-27T12:35:42.328Z,17.83
2017-09-27T12:38:10.130Z,18.87
2017-09-27T12:40:38.796Z,19.63
2017-09-27T12:43:06.551Z,20.10
2017-09-27T12:45:34.735Z,18.77
2017-09-27T12:48:02.919Z,18.27
2017-09-27T12:50:30.960Z,18.67
2017-09-27T12:52:58.742Z,19.07
2017-09-27T12:55:26.610Z,18.00
2017-09-27T12:57:54.455Z,18.07
2017-09-27T13:00:22.653Z,20.23
2017-09-27T13:02:50.411Z,20.43
2017-09-27T13:05:18.291Z,18.30
2017-09-27T13:07:46.225Z,21.67
2017-09-27T13:10:14.628Z,23.30
2017-09-27T13:12:42.476Z,29.57
2017-09-27T13:15:11.099Z,31.97
2017-09-27T13:17:39.661Z,28.83
2017-09-27T13:20:07.611Z,28.97
2017-09-27T13:22:35.991Z,29.43
2017-09-27T13:25:05.819Z,28.27
2017-09-27T13:27:34.408Z,26.57
2017-09-27T13:30:02.984Z,27.23
2017-09-27T13:32:30.816Z,30.27
2017-09-27T13:34:58.697Z,27.03
2017-09-27T13:37:26.447Z,23.63
2017-09-27T13:39:54.239Z,21.60
2017-09-27T13:42:23.128Z,23.60
2017-09-27T13:44:51.114Z,20.37
2017-09-27T13:47:22.341Z,19.23
2017-09-27T13:49:50.224Z,20.60
2017-09-27T13:52:18.186Z,19.20
2017-09-27T13:54:45.978Z,18.10
2017-09-27T13:57:14.652Z,17.27
2017-09-27T13:59:43.325Z,16.93
2017-09-27T14:02:11.198Z,14.83
2017-09-27T14:04:39.036Z,14.37
2017-09-27T14:07:06.800Z,15.50
2017-09-27T14:09:34.573Z,13.33
2017-09-27T14:12:02.354Z,13.00
2017-09-27T14:14:30.700Z,13.03
2017-09-27T14:16:58.705Z,10.73
2017-09-27T14:19:26.680Z,11.83
2017-09-27T14:21:55.955Z,7.27
2017-09-27T14:24:23.918Z,7.07
2017-09-27T14:26:51.715Z,5.50
2017-09-27T14:29:19.479Z,5.00
2017-09-27T14:31:47.318Z,5.60
2017-09-27T14:34:15.171Z,5.67
2017-09-27T14:36:43.044Z,5.30
2017-09-27T14:39:11.115Z,5.00
2017-09-27T14:41:38.878Z,4.87
2017-09-27T14:44:06.674Z,5.00
2017-09-27T14:46:35.877Z,5.27
2017-09-27T14:49:04.950Z,4.70
2017-09-27T14:51:34.260Z,4.90
2017-09-27T14:54:02.140Z,4.00
2017-09-27T14:56:31.024Z,3.83
2017-09-27T14:59:00.830Z,3.87
2017-09-27T15:01:28.595Z,3.23
2017-09-27T15:03:56.394Z,3.40
2017-09-27T15:06:24.266Z,3.87
2017-09-27T15:08:52.083Z,3.30
2017-09-27T15:11:19.968Z,3.40
2017-09-27T15:13:48.648Z,3.43
2017-09-27T15:16:16.539Z,3.07
2017-09-27T15:18:44.559Z,3.30
2017-09-27T15:21:12.360Z,3.00
2017-09-27T15:23:41.931Z,2.50
2017-09-27T15:26:09.819Z,2.90
2017-09-27T15:28:37.680Z,3.07
2017-09-27T15:31:05.637Z,2.40
2017-09-27T15:33:33.496Z,2.83
2017-09-27T15:36:01.235Z,3.20
2017-09-27T15:38:29.041Z,2.10
2017-09-27T15:40:56.906Z,2.63
2017-09-27T15:43:24.718Z,2.77
2017-09-27T15:45:52.789Z,3.20
2017-09-27T15:48:22.435Z,3.13
2017-09-27T15:50:50.213Z,2.63
2017-09-27T15:53:18.238Z,2.83
2017-09-27T15:55:46.056Z,2.93
2017-09-27T15:58:13.996Z,2.90
2017-09-27T16:00:41.871Z,3.10
2017-09-27T16:03:09.608Z,3.23
2017-09-27T16:05:37.394Z,3.73
2017-09-27T16:08:05.177Z,4.97
2017-09-27T16:10:32.905Z,5.10
2017-09-27T16:13:00.706Z,5.37
2017-09-27T16:15:28.516Z,5.50
2017-09-27T16:17:56.303Z,4.40
2017-09-27T16:20:24.076Z,4.97
2017-09-27T16:22:55.660Z,4.30
2017-09-27T16:25:23.531Z,5.07
2017-09-27T16:27:51.275Z,5.27
2017-09-27T16:30:20.872Z,5.63
2017-09-27T16:32:48.745Z,5.80
2017-09-27T16:35:16.919Z,5.60
2017-09-27T16:37:44.801Z,5.70
2017-09-27T16:40:12.679Z,5.80
2017-09-27T16:42:40.620Z,6.87
2017-09-27T16:45:08.409Z,5.40
2017-09-27T16:47:36.178Z,6.53
2017-09-27T16:50:04.116Z,6.13
2017-09-27T16:52:31.906Z,6.37
2017-09-27T16:54:59.777Z,6.50
2017-09-27T16:57:27.636Z,5.33
2017-09-27T16:59:55.582Z,6.20
2017-09-27T17:02:23.661Z,6.10
2017-09-27T17:04:51.491Z,6.87
2017-09-27T17:07:19.386Z,7.70
2017-09-27T17:09:48.142Z,7.40
2017-09-27T17:12:15.877Z,6.20
2017-09-27T17:14:43.907Z,6.40
2017-09-27T17:17:11.775Z,7.00
2017-09-27T17:19:39.566Z,9.03
2017-09-27T17:22:07.426Z,6.60
2017-09-27T17:24:36.095Z,7.10
2017-09-27T17:27:03.988Z,7.77
2017-09-27T17:29:32.695Z,9.03
2017-09-27T17:32:00.613Z,9.80
2017-09-27T17:34:28.604Z,9.77
2017-09-27T17:36:56.656Z,9.37
2017-09-27T17:39:24.728Z,10.30
2017-09-27T17:41:53.018Z,10.73
2017-09-27T17:44:20.786Z,10.23
2017-09-27T17:46:48.733Z,9.23
2017-09-27T17:49:16.529Z,9.63
2017-09-27T17:51:45.181Z,11.50
2017-09-27T17:54:13.157Z,10.63
2017-09-27T17:56:41.037Z,12.87
2017-09-27T17:59:08.906Z,17.30
2017-09-27T18:01:36.673Z,18.00
2017-09-27T18:04:08.124Z,15.50
2017-09-27T18:06:41.699Z,15.80
2017-09-27T18:09:15.300Z,13.70
2017-09-27T18:15:09.401Z,12.37
2017-09-27T18:17:37.815Z,11.53
2017-09-27T18:20:05.671Z,14.57
2017-09-27T18:22:33.613Z,14.10
2017-09-27T18:25:01.584Z,28.33
2017-09-27T18:27:29.474Z,11.97
2017-09-27T18:29:58.769Z,10.30
2017-09-27T18:32:26.872Z,11.17
2017-09-27T18:34:55.641Z,9.13
2017-09-27T18:37:23.492Z,52.97
2017-09-27T18:39:51.440Z,18.57
2017-09-27T18:42:19.313Z,16.87
2017-09-27T18:44:47.207Z,13.10
2017-09-27T18:47:15.088Z,14.93
2017-09-27T18:49:43.769Z,11.37
2017-09-27T18:52:12.431Z,11.43
2017-09-27T18:54:40.299Z,12.00
2017-09-27T18:57:08.167Z,11.70
2017-09-27T18:59:36.115Z,14.17
2017-09-27T19:02:04.118Z,13.33
2017-09-27T19:04:32.054Z,13.00
2017-09-27T19:06:59.917Z,14.53
2017-09-27T19:09:28.014Z,14.33
2017-09-27T19:11:56.166Z,13.33
2017-09-27T19:14:24.778Z,12.83
2017-09-27T19:16:53.612Z,15.57
2017-09-27T19:19:21.588Z,13.63
2017-09-27T19:21:49.371Z,16.07
2017-09-27T19:24:17.177Z,13.73
2017-09-27T19:26:45.836Z,20.40
2017-09-27T19:29:13.716Z,33.67
2017-09-27T19:31:41.674Z,27.60
2017-09-27T19:34:09.666Z,42.83
2017-09-27T19:36:38.359Z,12.60
2017-09-27T19:39:07.104Z,11.00
2017-09-27T19:41:35.099Z,11.20
2017-09-27T19:44:02.868Z,10.57
2017-09-27T19:46:30.829Z,10.20
2017-09-27T19:49:00.021Z,10.80
2017-09-27T19:51:28.292Z,11.43
2017-09-27T19:53:56.142Z,11.40
2017-09-27T19:56:24.009Z,12.07
2017-09-27T19:58:52.694Z,15.00
2017-09-27T20:01:20.777Z,14.23
2017-09-27T20:03:49.343Z,10.33
2017-09-27T20:06:17.124Z,9.87
2017-09-27T20:08:44.907Z,8.43
2017-09-27T20:11:12.945Z,9.23
2017-09-27T20:13:40.922Z,9.50
2017-09-27T20:16:08.704Z,9.17
2017-09-27T20:18:36.754Z,9.90
2017-09-27T20:21:04.722Z,9.57
2017-09-27T20:23:32.622Z,9.33
2017-09-27T20:26:00.495Z,10.13
2017-09-27T20:28:29.172Z,14.10
2017-09-27T20:30:58.676Z,10.40
2017-09-27T20:33:26.740Z,9.97
2017-09-27T20:35:54.798Z,8.90
2017-09-27T20:38:22.671Z,9.20
2017-09-27T20:40:50.621Z,10.77
2017-09-27T20:43:18.603Z,8.13
2017-09-27T20:45:46.587Z,8.03
2017-09-27T20:48:14.438Z,8.33
2017-09-27T20:50:42.309Z,7.73
2017-09-27T20:53:10.276Z,9.90
2017-09-27T20:55:38.159Z,8.60
2017-09-27T20:58:05.942Z,8.53
2017-09-27T21:00:34.608Z,8.70
2017-09-27T21:03:02.470Z,13.40
2017-09-27T21:05:30.339Z,9.17
2017-09-27T21:07:58.380Z,8.90
2017-09-27T21:10:26.266Z,9.13
2017-09-27T21:12:54.114Z,9.60
2017-09-27T21:15:21.981Z,10.93
2017-09-27T21:17:49.831Z,13.50
2017-09-27T21:20:17.716Z,8.43
2017-09-27T21:22:45.579Z,8.60
2017-09-27T21:25:14.264Z,9.47
2017-09-27T21:27:42.439Z,8.40
2017-09-27T21:30:10.546Z,8.63
2017-09-27T21:32:38.480Z,8.40
2017-09-27T21:35:06.345Z,8.53
2017-09-27T21:37:34.199Z,9.33
2017-09-27T21:40:01.992Z,14.70
2017-09-27T21:42:29.839Z,35.27
2017-09-27T21:44:57.607Z,8.00
2017-09-27T21:47:25.575Z,7.67
2017-09-27T21:49:53.342Z,7.17
2017-09-27T21:52:21.104Z,7.60
2017-09-27T21:54:48.880Z,6.57
2017-09-27T21:57:16.747Z,7.03
2017-09-27T21:59:44.513Z,6.60
2017-09-27T22:02:12.389Z,7.50
2017-09-27T22:04:40.253Z,7.70
2017-09-27T22:07:08.218Z,8.40
2017-09-27T22:09:36.792Z,7.20
2017-09-27T22:12:04.686Z,7.80
2017-09-27T22:14:33.026Z,6.70
2017-09-27T22:17:00.906Z,6.73
2017-09-27T22:19:28.713Z,6.73
2017-09-27T22:21:57.294Z,6.37
2017-09-27T22:24:25.926Z,6.60
2017-09-27T22:26:53.668Z,6.43
2017-09-27T22:29:21.552Z,6.90
2017-09-27T22:31:49.318Z,7.03
2017-09-27T22:34:17.099Z,9.67
2017-09-27T22:36:45.052Z,9.43
2017-09-27T22:39:12.922Z,8.27
2017-09-27T22:41:40.818Z,8.47
2017-09-27T22:44:08.679Z,8.27
2017-09-27T22:46:36.638Z,10.50
2017-09-27T22:49:04.523Z,10.37
2017-09-27T22:51:32.508Z,10.40
2017-09-27T22:54:00.329Z,10.70
2017-09-27T22:56:28.319Z,10.03
2017-09-27T22:58:56.700Z,9.50
2017-09-27T23:01:26.188Z,10.07
2017-09-27T23:03:54.040Z,10.87
2017-09-27T23:06:21.934Z,8.87
2017-09-27T23:08:50.649Z,9.90
2017-09-27T23:11:18.579Z,9.30
2017-09-27T23:13:47.451Z,9.47
2017-09-27T23:16:15.196Z,9.50
2017-09-27T23:18:43.201Z,8.63
2017-09-27T23:21:12.558Z,10.50
2017-09-27T23:23:43.138Z,8.27
2017-09-27T23:26:10.946Z,9.30
2017-09-27T23:28:38.921Z,9.10
2017-09-27T23:31:07.482Z,9.97
2017-09-27T23:33:36.226Z,9.80
2017-09-27T23:36:04.159Z,10.13
2017-09-27T23:38:32.009Z,11.73
2017-09-27T23:41:00.545Z,10.03
2017-09-27T23:43:28.422Z,11.00
2017-09-27T23:45:56.290Z,10.20
2017-09-27T23:48:24.141Z,10.20
2017-09-27T23:50:52.874Z,10.67
2017-09-27T23:53:21.506Z,11.70
2017-09-27T23:55:49.293Z,11.20
2017-09-27T23:58:17.550Z,11.63
